Terminal Aerodrome Forecast
Issued by NWS Greer, SC

Home | Current Version | Previous Version | Text Only | Print | Product List | Glossary On
Versions: 1 2 3 4 5 6 7 8 9 10 11 12 13 14 15 16 17 18 19 20 21 22 23 24 25 26 27 28 29 30 31 32 33 34 35 36 37 38 39 40 41 42 43 44 45 46 47 48 49 50
000
FTUS42 KGSP 030826 AAA
TAFCLT
TAF AMD
KCLT 030826Z 0308/0406 21004KT P6SM FEW015 BKN100
     FM031300 21005KT P6SM VCSH BKN010 OVC250
     FM031500 22010G15KT 6SM -SHRA SCT040 BKN080 PROB30 0318/0324
      4SM TSRA BKN040CB
     FM040300 24006KT P6SM BKN120 OVC250=

USA.gov is the U.S. government's official web portal to all federal, state and local government web resources and services.